sensor_id;sensor_type;location;lat;lon;timestamp;P1;durP1;ratioP1;P2;durP2;ratioP2
52786;SDS011;38661;53.152;5.846;2023-03-29T00:00:39;7.07;;;4.93;;
52786;SDS011;38661;53.152;5.846;2023-03-29T00:03:05;8.52;;;5.07;;
52786;SDS011;38661;53.152;5.846;2023-03-29T00:05:30;9.85;;;5.70;;
52786;SDS011;38661;53.152;5.846;2023-03-29T00:07:59;9.57;;;4.63;;
52786;SDS011;38661;53.152;5.846;2023-03-29T00:10:28;10.35;;;4.30;;
52786;SDS011;38661;53.152;5.846;2023-03-29T00:12:55;9.40;;;5.15;;
52786;SDS011;38661;53.152;5.846;2023-03-29T00:15:21;8.57;;;5.18;;
52786;SDS011;38661;53.152;5.846;2023-03-29T00:17:47;8.68;;;4.65;;
52786;SDS011;38661;53.152;5.846;2023-03-29T00:20:13;7.57;;;4.55;;
52786;SDS011;38661;53.152;5.846;2023-03-29T00:22:39;8.77;;;4.78;;
52786;SDS011;38661;53.152;5.846;2023-03-29T00:25:09;6.68;;;4.57;;
52786;SDS011;38661;53.152;5.846;2023-03-29T00:27:36;8.43;;;5.30;;
52786;SDS011;38661;53.152;5.846;2023-03-29T00:30:03;8.65;;;4.70;;
52786;SDS011;38661;53.152;5.846;2023-03-29T00:32:31;6.70;;;4.00;;
52786;SDS011;38661;53.152;5.846;2023-03-29T00:34:58;4.82;;;3.70;;
52786;SDS011;38661;53.152;5.846;2023-03-29T00:37:29;7.22;;;4.72;;
52786;SDS011;38661;53.152;5.846;2023-03-29T00:39:55;10.73;;;5.00;;
52786;SDS011;38661;53.152;5.846;2023-03-29T00:42:22;6.55;;;4.13;;
52786;SDS011;38661;53.152;5.846;2023-03-29T00:49:51;6.88;;;4.75;;
52786;SDS011;38661;53.152;5.846;2023-03-29T00:52:18;8.70;;;4.38;;
52786;SDS011;38661;53.152;5.846;2023-03-29T00:54:46;8.10;;;5.15;;
52786;SDS011;38661;53.152;5.846;2023-03-29T00:57:17;9.30;;;4.72;;
52786;SDS011;38661;53.152;5.846;2023-03-29T00:59:45;9.63;;;4.90;;
52786;SDS011;38661;53.152;5.846;2023-03-29T01:02:12;8.32;;;4.40;;
52786;SDS011;38661;53.152;5.846;2023-03-29T01:04:45;7.97;;;5.28;;
52786;SDS011;38661;53.152;5.846;2023-03-29T01:10:12;9.23;;;4.68;;
52786;SDS011;38661;53.152;5.846;2023-03-29T01:12:44;7.55;;;4.28;;
52786;SDS011;38661;53.152;5.846;2023-03-29T01:15:13;7.32;;;4.13;;
52786;SDS011;38661;53.152;5.846;2023-03-29T01:17:44;7.68;;;4.55;;
52786;SDS011;38661;53.152;5.846;2023-03-29T01:20:16;7.85;;;4.35;;
52786;SDS011;38661;53.152;5.846;2023-03-29T01:25:44;6.85;;;4.60;;
52786;SDS011;38661;53.152;5.846;2023-03-29T01:28:44;5.47;;;3.38;;
52786;SDS011;38661;53.152;5.846;2023-03-29T01:31:23;8.32;;;4.25;;
52786;SDS011;38661;53.152;5.846;2023-03-29T01:33:54;5.95;;;3.58;;
52786;SDS011;38661;53.152;5.846;2023-03-29T01:36:42;5.85;;;3.03;;
52786;SDS011;38661;53.152;5.846;2023-03-29T01:39:14;4.90;;;2.88;;
52786;SDS011;38661;53.152;5.846;2023-03-29T01:47:18;6.00;;;3.40;;
52786;SDS011;38661;53.152;5.846;2023-03-29T01:49:57;5.00;;;3.00;;
52786;SDS011;38661;53.152;5.846;2023-03-29T01:52:37;5.03;;;2.80;;
52786;SDS011;38661;53.152;5.846;2023-03-29T01:55:12;4.30;;;2.92;;
52786;SDS011;38661;53.152;5.846;2023-03-29T01:57:42;5.43;;;3.20;;
52786;SDS011;38661;53.152;5.846;2023-03-29T02:00:13;6.32;;;3.42;;
52786;SDS011;38661;53.152;5.846;2023-03-29T02:02:41;5.45;;;3.03;;
52786;SDS011;38661;53.152;5.846;2023-03-29T02:05:09;5.78;;;2.78;;
52786;SDS011;38661;53.152;5.846;2023-03-29T02:07:38;6.72;;;3.03;;
52786;SDS011;38661;53.152;5.846;2023-03-29T02:10:06;5.45;;;2.67;;
52786;SDS011;38661;53.152;5.846;2023-03-29T02:12:34;6.90;;;3.17;;
52786;SDS011;38661;53.152;5.846;2023-03-29T02:15:01;4.32;;;2.90;;
52786;SDS011;38661;53.152;5.846;2023-03-29T02:17:28;5.65;;;3.15;;
52786;SDS011;38661;53.152;5.846;2023-03-29T02:20:05;5.38;;;3.05;;
52786;SDS011;38661;53.152;5.846;2023-03-29T02:25:45;6.22;;;3.13;;
52786;SDS011;38661;53.152;5.846;2023-03-29T02:28:15;3.97;;;2.72;;
52786;SDS011;38661;53.152;5.846;2023-03-29T02:33:25;5.43;;;3.20;;
52786;SDS011;38661;53.152;5.846;2023-03-29T02:36:08;6.38;;;3.10;;
52786;SDS011;38661;53.152;5.846;2023-03-29T02:38:44;7.90;;;3.58;;
52786;SDS011;38661;53.152;5.846;2023-03-29T02:41:11;4.03;;;3.00;;
52786;SDS011;38661;53.152;5.846;2023-03-29T02:43:37;5.70;;;2.72;;
52786;SDS011;38661;53.152;5.846;2023-03-29T02:46:04;6.80;;;3.05;;
52786;SDS011;38661;53.152;5.846;2023-03-29T02:48:31;5.90;;;3.53;;
52786;SDS011;38661;53.152;5.846;2023-03-29T02:51:00;6.30;;;3.08;;
52786;SDS011;38661;53.152;5.846;2023-03-29T02:53:32;6.03;;;3.83;;
52786;SDS011;38661;53.152;5.846;2023-03-29T02:56:19;8.48;;;4.10;;
52786;SDS011;38661;53.152;5.846;2023-03-29T02:58:45;4.85;;;3.38;;
52786;SDS011;38661;53.152;5.846;2023-03-29T03:01:11;6.82;;;3.38;;
52786;SDS011;38661;53.152;5.846;2023-03-29T03:03:37;5.90;;;4.20;;
52786;SDS011;38661;53.152;5.846;2023-03-29T03:06:03;5.25;;;3.42;;
52786;SDS011;38661;53.152;5.846;2023-03-29T03:08:29;7.82;;;3.65;;
52786;SDS011;38661;53.152;5.846;2023-03-29T03:10:56;5.15;;;3.47;;
52786;SDS011;38661;53.152;5.846;2023-03-29T03:13:22;9.13;;;4.15;;
52786;SDS011;38661;53.152;5.846;2023-03-29T03:15:47;5.65;;;3.30;;
52786;SDS011;38661;53.152;5.846;2023-03-29T03:18:13;7.32;;;3.90;;
52786;SDS011;38661;53.152;5.846;2023-03-29T03:20:40;7.80;;;4.15;;
52786;SDS011;38661;53.152;5.846;2023-03-29T03:23:07;4.82;;;3.75;;
52786;SDS011;38661;53.152;5.846;2023-03-29T03:25:36;8.10;;;3.90;;
52786;SDS011;38661;53.152;5.846;2023-03-29T03:28:01;6.07;;;3.40;;
52786;SDS011;38661;53.152;5.846;2023-03-29T03:30:27;6.18;;;4.18;;
52786;SDS011;38661;53.152;5.846;2023-03-29T03:32:53;5.65;;;3.70;;
52786;SDS011;38661;53.152;5.846;2023-03-29T03:35:19;6.18;;;3.70;;
52786;SDS011;38661;53.152;5.846;2023-03-29T03:37:46;7.03;;;4.07;;
52786;SDS011;38661;53.152;5.846;2023-03-29T03:40:12;7.97;;;4.60;;
52786;SDS011;38661;53.152;5.846;2023-03-29T03:42:38;7.00;;;4.78;;
52786;SDS011;38661;53.152;5.846;2023-03-29T03:45:05;6.13;;;3.97;;
52786;SDS011;38661;53.152;5.846;2023-03-29T03:47:32;5.28;;;4.32;;
52786;SDS011;38661;53.152;5.846;2023-03-29T03:50:01;9.23;;;4.93;;
52786;SDS011;38661;53.152;5.846;2023-03-29T03:52:27;6.40;;;4.72;;
52786;SDS011;38661;53.152;5.846;2023-03-29T03:54:53;7.68;;;4.97;;
52786;SDS011;38661;53.152;5.846;2023-03-29T03:57:20;6.82;;;4.30;;
52786;SDS011;38661;53.152;5.846;2023-03-29T03:59:47;8.52;;;4.13;;
52786;SDS011;38661;53.152;5.846;2023-03-29T04:02:13;6.93;;;4.20;;
52786;SDS011;38661;53.152;5.846;2023-03-29T04:04:39;8.23;;;4.38;;
52786;SDS011;38661;53.152;5.846;2023-03-29T04:07:05;8.85;;;4.63;;
52786;SDS011;38661;53.152;5.846;2023-03-29T04:09:31;6.32;;;4.10;;
52786;SDS011;38661;53.152;5.846;2023-03-29T04:11:58;7.65;;;4.35;;
52786;SDS011;38661;53.152;5.846;2023-03-29T04:14:25;7.00;;;4.72;;
52786;SDS011;38661;53.152;5.846;2023-03-29T04:16:52;7.03;;;4.45;;
52786;SDS011;38661;53.152;5.846;2023-03-29T04:19:18;6.35;;;4.72;;
52786;SDS011;38661;53.152;5.846;2023-03-29T04:21:44;6.53;;;4.55;;
52786;SDS011;38661;53.152;5.846;2023-03-29T04:24:12;6.15;;;4.07;;
52786;SDS011;38661;53.152;5.846;2023-03-29T04:26:38;13.18;;;4.78;;
52786;SDS011;38661;53.152;5.846;2023-03-29T04:29:04;10.88;;;4.72;;
52786;SDS011;38661;53.152;5.846;2023-03-29T04:31:30;7.53;;;4.53;;
52786;SDS011;38661;53.152;5.846;2023-03-29T04:33:56;6.55;;;4.45;;
52786;SDS011;38661;53.152;5.846;2023-03-29T04:36:23;8.82;;;4.97;;
52786;SDS011;38661;53.152;5.846;2023-03-29T04:38:49;7.97;;;5.47;;
52786;SDS011;38661;53.152;5.846;2023-03-29T04:41:19;7.43;;;5.30;;
52786;SDS011;38661;53.152;5.846;2023-03-29T04:43:45;7.35;;;4.45;;
52786;SDS011;38661;53.152;5.846;2023-03-29T04:46:12;8.55;;;4.97;;
52786;SDS011;38661;53.152;5.846;2023-03-29T04:48:38;9.43;;;5.40;;
52786;SDS011;38661;53.152;5.846;2023-03-29T04:51:04;8.40;;;4.65;;
52786;SDS011;38661;53.152;5.846;2023-03-29T04:53:30;10.05;;;5.88;;
52786;SDS011;38661;53.152;5.846;2023-03-29T04:55:56;9.45;;;5.50;;
52786;SDS011;38661;53.152;5.846;2023-03-29T04:58:23;8.35;;;4.72;;
52786;SDS011;38661;53.152;5.846;2023-03-29T05:00:53;9.82;;;5.95;;
52786;SDS011;38661;53.152;5.846;2023-03-29T05:03:20;7.82;;;5.82;;
52786;SDS011;38661;53.152;5.846;2023-03-29T05:05:46;11.05;;;6.10;;
52786;SDS011;38661;53.152;5.846;2023-03-29T05:08:12;10.43;;;6.55;;
52786;SDS011;38661;53.152;5.846;2023-03-29T05:10:40;8.40;;;5.45;;
52786;SDS011;38661;53.152;5.846;2023-03-29T05:13:07;8.95;;;6.03;;
52786;SDS011;38661;53.152;5.846;2023-03-29T05:15:34;11.18;;;6.65;;
52786;SDS011;38661;53.152;5.846;2023-03-29T05:18:00;13.45;;;7.75;;
52786;SDS011;38661;53.152;5.846;2023-03-29T05:20:26;10.07;;;6.57;;
52786;SDS011;38661;53.152;5.846;2023-03-29T05:22:52;12.68;;;7.90;;
52786;SDS011;38661;53.152;5.846;2023-03-29T05:25:18;11.10;;;7.03;;
52786;SDS011;38661;53.152;5.846;2023-03-29T05:27:44;14.13;;;8.38;;
52786;SDS011;38661;53.152;5.846;2023-03-29T05:30:11;13.27;;;8.88;;
52786;SDS011;38661;53.152;5.846;2023-03-29T05:32:39;14.20;;;9.73;;
52786;SDS011;38661;53.152;5.846;2023-03-29T05:35:05;18.55;;;10.30;;
52786;SDS011;38661;53.152;5.846;2023-03-29T05:37:32;18.90;;;11.18;;
52786;SDS011;38661;53.152;5.846;2023-03-29T05:39:58;14.90;;;11.32;;
52786;SDS011;38661;53.152;5.846;2023-03-29T05:42:24;17.85;;;12.80;;
52786;SDS011;38661;53.152;5.846;2023-03-29T05:44:51;18.60;;;12.60;;
52786;SDS011;38661;53.152;5.846;2023-03-29T05:47:17;15.57;;;10.95;;
52786;SDS011;38661;53.152;5.846;2023-03-29T05:49:43;18.60;;;11.25;;
52786;SDS011;38661;53.152;5.846;2023-03-29T05:52:10;19.20;;;13.63;;
52786;SDS011;38661;53.152;5.846;2023-03-29T05:54:37;16.88;;;12.45;;
52786;SDS011;38661;53.152;5.846;2023-03-29T05:57:03;19.70;;;12.77;;
52786;SDS011;38661;53.152;5.846;2023-03-29T05:59:28;19.13;;;12.98;;
52786;SDS011;38661;53.152;5.846;2023-03-29T06:01:54;21.23;;;13.90;;
52786;SDS011;38661;53.152;5.846;2023-03-29T06:04:20;20.92;;;13.73;;
52786;SDS011;38661;53.152;5.846;2023-03-29T06:06:46;17.23;;;12.13;;
52786;SDS011;38661;53.152;5.846;2023-03-29T06:09:12;18.05;;;13.35;;
52786;SDS011;38661;53.152;5.846;2023-03-29T06:11:38;17.17;;;11.00;;
52786;SDS011;38661;53.152;5.846;2023-03-29T06:14:04;17.67;;;11.52;;
52786;SDS011;38661;53.152;5.846;2023-03-29T06:16:30;18.70;;;11.93;;
52786;SDS011;38661;53.152;5.846;2023-03-29T06:18:56;16.70;;;11.90;;
52786;SDS011;38661;53.152;5.846;2023-03-29T06:21:22;19.85;;;11.85;;
52786;SDS011;38661;53.152;5.846;2023-03-29T06:23:50;16.90;;;12.63;;
52786;SDS011;38661;53.152;5.846;2023-03-29T06:26:16;15.40;;;10.82;;
52786;SDS011;38661;53.152;5.846;2023-03-29T06:28:42;20.65;;;11.68;;
52786;SDS011;38661;53.152;5.846;2023-03-29T06:31:08;16.20;;;11.95;;
52786;SDS011;38661;53.152;5.846;2023-03-29T06:33:35;17.08;;;10.82;;
52786;SDS011;38661;53.152;5.846;2023-03-29T06:36:02;18.33;;;12.32;;
52786;SDS011;38661;53.152;5.846;2023-03-29T06:38:28;17.77;;;11.75;;
52786;SDS011;38661;53.152;5.846;2023-03-29T06:41:02;15.32;;;11.65;;
52786;SDS011;38661;53.152;5.846;2023-03-29T06:43:29;16.67;;;11.02;;
52786;SDS011;38661;53.152;5.846;2023-03-29T06:45:57;14.93;;;10.93;;
52786;SDS011;38661;53.152;5.846;2023-03-29T06:48:23;17.75;;;10.73;;
52786;SDS011;38661;53.152;5.846;2023-03-29T06:50:49;15.52;;;11.63;;
52786;SDS011;38661;53.152;5.846;2023-03-29T06:53:15;13.50;;;9.98;;
52786;SDS011;38661;53.152;5.846;2023-03-29T06:55:41;15.23;;;10.13;;
52786;SDS011;38661;53.152;5.846;2023-03-29T06:58:06;15.52;;;10.77;;
52786;SDS011;38661;53.152;5.846;2023-03-29T07:00:33;18.08;;;10.32;;
52786;SDS011;38661;53.152;5.846;2023-03-29T07:03:05;15.02;;;10.70;;
52786;SDS011;38661;53.152;5.846;2023-03-29T07:05:33;14.32;;;10.57;;
52786;SDS011;38661;53.152;5.846;2023-03-29T07:08:05;14.43;;;9.75;;
52786;SDS011;38661;53.152;5.846;2023-03-29T07:10:32;15.50;;;10.80;;
52786;SDS011;38661;53.152;5.846;2023-03-29T07:13:03;15.32;;;11.18;;
52786;SDS011;38661;53.152;5.846;2023-03-29T07:15:32;24.00;;;16.67;;
52786;SDS011;38661;53.152;5.846;2023-03-29T07:17:59;35.38;;;23.70;;
52786;SDS011;38661;53.152;5.846;2023-03-29T07:20:26;31.02;;;19.55;;
52786;SDS011;38661;53.152;5.846;2023-03-29T07:22:52;25.42;;;17.25;;
52786;SDS011;38661;53.152;5.846;2023-03-29T07:25:19;20.13;;;14.38;;
52786;SDS011;38661;53.152;5.846;2023-03-29T07:27:46;18.08;;;12.45;;
52786;SDS011;38661;53.152;5.846;2023-03-29T07:30:14;17.40;;;11.38;;
52786;SDS011;38661;53.152;5.846;2023-03-29T07:32:44;17.55;;;11.40;;
52786;SDS011;38661;53.152;5.846;2023-03-29T07:35:11;15.43;;;12.35;;
52786;SDS011;38661;53.152;5.846;2023-03-29T07:37:38;15.48;;;11.02;;
52786;SDS011;38661;53.152;5.846;2023-03-29T07:40:07;22.83;;;14.27;;
52786;SDS011;38661;53.152;5.846;2023-03-29T07:42:40;14.52;;;10.25;;
52786;SDS011;38661;53.152;5.846;2023-03-29T07:45:08;20.25;;;11.30;;
52786;SDS011;38661;53.152;5.846;2023-03-29T07:47:35;13.55;;;9.55;;
52786;SDS011;38661;53.152;5.846;2023-03-29T07:50:01;18.35;;;9.95;;
52786;SDS011;38661;53.152;5.846;2023-03-29T07:52:28;12.15;;;8.95;;
52786;SDS011;38661;53.152;5.846;2023-03-29T07:54:54;12.48;;;9.13;;
52786;SDS011;38661;53.152;5.846;2023-03-29T07:57:21;13.00;;;9.25;;
52786;SDS011;38661;53.152;5.846;2023-03-29T07:59:48;14.88;;;9.80;;
52786;SDS011;38661;53.152;5.846;2023-03-29T08:02:13;13.93;;;9.48;;
52786;SDS011;38661;53.152;5.846;2023-03-29T08:04:39;16.13;;;9.15;;
52786;SDS011;38661;53.152;5.846;2023-03-29T08:07:06;10.95;;;8.65;;
52786;SDS011;38661;53.152;5.846;2023-03-29T08:09:31;14.25;;;9.77;;
52786;SDS011;38661;53.152;5.846;2023-03-29T08:11:57;18.13;;;9.73;;
52786;SDS011;38661;53.152;5.846;2023-03-29T08:14:23;13.82;;;8.85;;
52786;SDS011;38661;53.152;5.846;2023-03-29T08:16:49;18.85;;;9.90;;
52786;SDS011;38661;53.152;5.846;2023-03-29T08:19:16;12.30;;;8.93;;
52786;SDS011;38661;53.152;5.846;2023-03-29T08:21:42;11.77;;;8.75;;
52786;SDS011;38661;53.152;5.846;2023-03-29T08:24:08;14.02;;;9.43;;
52786;SDS011;38661;53.152;5.846;2023-03-29T08:26:34;11.73;;;9.27;;
52786;SDS011;38661;53.152;5.846;2023-03-29T08:28:59;14.52;;;9.75;;
52786;SDS011;38661;53.152;5.846;2023-03-29T08:31:25;13.15;;;9.45;;
52786;SDS011;38661;53.152;5.846;2023-03-29T08:33:51;15.15;;;9.38;;
52786;SDS011;38661;53.152;5.846;2023-03-29T08:36:17;14.48;;;9.35;;
52786;SDS011;38661;53.152;5.846;2023-03-29T08:38:43;11.18;;;8.70;;
52786;SDS011;38661;53.152;5.846;2023-03-29T08:41:23;13.05;;;9.57;;
52786;SDS011;38661;53.152;5.846;2023-03-29T08:46:43;11.00;;;8.80;;
52786;SDS011;38661;53.152;5.846;2023-03-29T08:49:13;11.20;;;8.65;;
52786;SDS011;38661;53.152;5.846;2023-03-29T08:51:44;14.63;;;8.75;;
52786;SDS011;38661;53.152;5.846;2023-03-29T08:54:17;17.83;;;9.60;;
52786;SDS011;38661;53.152;5.846;2023-03-29T08:56:49;12.35;;;8.73;;
52786;SDS011;38661;53.152;5.846;2023-03-29T08:59:20;14.80;;;8.55;;
52786;SDS011;38661;53.152;5.846;2023-03-29T09:01:52;14.68;;;8.90;;
52786;SDS011;38661;53.152;5.846;2023-03-29T09:04:28;16.13;;;10.35;;
52786;SDS011;38661;53.152;5.846;2023-03-29T09:06:57;14.10;;;8.82;;
52786;SDS011;38661;53.152;5.846;2023-03-29T09:09:26;18.45;;;10.20;;
52786;SDS011;38661;53.152;5.846;2023-03-29T09:12:05;18.90;;;9.55;;
52786;SDS011;38661;53.152;5.846;2023-03-29T09:20:46;13.73;;;9.38;;
52786;SDS011;38661;53.152;5.846;2023-03-29T09:26:52;19.67;;;10.52;;
52786;SDS011;38661;53.152;5.846;2023-03-29T09:31:57;16.88;;;9.80;;
52786;SDS011;38661;53.152;5.846;2023-03-29T09:34:40;14.82;;;9.88;;
52786;SDS011;38661;53.152;5.846;2023-03-29T09:37:21;17.45;;;11.40;;
52786;SDS011;38661;53.152;5.846;2023-03-29T09:40:09;16.88;;;10.50;;
52786;SDS011;38661;53.152;5.846;2023-03-29T09:42:40;20.83;;;10.48;;
52786;SDS011;38661;53.152;5.846;2023-03-29T09:45:07;22.73;;;10.40;;
52786;SDS011;38661;53.152;5.846;2023-03-29T09:47:37;23.20;;;11.43;;
52786;SDS011;38661;53.152;5.846;2023-03-29T09:50:09;17.10;;;11.13;;
52786;SDS011;38661;53.152;5.846;2023-03-29T09:52:46;23.60;;;10.95;;
52786;SDS011;38661;53.152;5.846;2023-03-29T09:55:14;21.17;;;11.93;;
52786;SDS011;38661;53.152;5.846;2023-03-29T09:57:42;25.25;;;11.85;;
52786;SDS011;38661;53.152;5.846;2023-03-29T10:00:10;21.00;;;12.10;;
52786;SDS011;38661;53.152;5.846;2023-03-29T10:02:37;19.60;;;13.20;;
52786;SDS011;38661;53.152;5.846;2023-03-29T10:05:05;19.70;;;11.75;;
52786;SDS011;38661;53.152;5.846;2023-03-29T10:07:56;24.95;;;13.50;;
52786;SDS011;38661;53.152;5.846;2023-03-29T10:10:25;21.00;;;12.77;;
52786;SDS011;38661;53.152;5.846;2023-03-29T10:12:58;20.75;;;11.20;;
52786;SDS011;38661;53.152;5.846;2023-03-29T10:15:29;16.90;;;12.43;;
52786;SDS011;38661;53.152;5.846;2023-03-29T10:17:59;19.85;;;12.20;;
52786;SDS011;38661;53.152;5.846;2023-03-29T10:20:29;19.15;;;12.85;;
52786;SDS011;38661;53.152;5.846;2023-03-29T10:22:58;18.17;;;12.52;;
52786;SDS011;38661;53.152;5.846;2023-03-29T10:25:25;19.65;;;11.65;;
52786;SDS011;38661;53.152;5.846;2023-03-29T10:28:00;21.70;;;12.15;;
52786;SDS011;38661;53.152;5.846;2023-03-29T10:30:28;20.33;;;12.50;;
52786;SDS011;38661;53.152;5.846;2023-03-29T10:32:58;19.83;;;14.38;;
52786;SDS011;38661;53.152;5.846;2023-03-29T10:35:37;22.38;;;14.05;;
52786;SDS011;38661;53.152;5.846;2023-03-29T10:38:08;23.70;;;16.23;;
52786;SDS011;38661;53.152;5.846;2023-03-29T10:40:47;22.15;;;14.77;;
52786;SDS011;38661;53.152;5.846;2023-03-29T10:43:25;22.77;;;16.05;;
52786;SDS011;38661;53.152;5.846;2023-03-29T10:46:04;22.55;;;15.15;;
52786;SDS011;38661;53.152;5.846;2023-03-29T10:48:35;27.27;;;17.55;;
52786;SDS011;38661;53.152;5.846;2023-03-29T10:51:02;25.95;;;17.45;;
52786;SDS011;38661;53.152;5.846;2023-03-29T10:53:34;27.15;;;17.85;;
52786;SDS011;38661;53.152;5.846;2023-03-29T11:01:30;26.10;;;17.92;;
52786;SDS011;38661;53.152;5.846;2023-03-29T11:12:14;28.48;;;18.15;;
52786;SDS011;38661;53.152;5.846;2023-03-29T11:15:33;32.22;;;19.95;;
52786;SDS011;38661;53.152;5.846;2023-03-29T11:18:54;29.98;;;18.90;;
52786;SDS011;38661;53.152;5.846;2023-03-29T11:27:01;27.92;;;17.15;;
52786;SDS011;38661;53.152;5.846;2023-03-29T11:32:34;30.00;;;18.48;;
52786;SDS011;38661;53.152;5.846;2023-03-29T11:35:12;30.88;;;19.05;;
52786;SDS011;38661;53.152;5.846;2023-03-29T11:43:50;31.67;;;18.35;;
52786;SDS011;38661;53.152;5.846;2023-03-29T11:46:27;28.98;;;16.42;;
52786;SDS011;38661;53.152;5.846;2023-03-29T11:52:31;28.30;;;17.40;;
52786;SDS011;38661;53.152;5.846;2023-03-29T11:54:45;25.05;;;17.00;;
52786;SDS011;38661;53.152;5.846;2023-03-29T12:00:00;30.55;;;19.50;;
52786;SDS011;38661;53.152;5.846;2023-03-29T12:05:17;28.40;;;18.83;;
52786;SDS011;38661;53.152;5.846;2023-03-29T12:07:57;27.05;;;17.45;;
52786;SDS011;38661;53.152;5.846;2023-03-29T12:13:23;26.98;;;18.08;;
52786;SDS011;38661;53.152;5.846;2023-03-29T12:16:01;32.35;;;18.52;;
52786;SDS011;38661;53.152;5.846;2023-03-29T12:18:44;30.75;;;21.17;;
52786;SDS011;38661;53.152;5.846;2023-03-29T12:21:15;27.45;;;20.00;;
52786;SDS011;38661;53.152;5.846;2023-03-29T12:23:44;27.90;;;18.70;;
52786;SDS011;38661;53.152;5.846;2023-03-29T12:26:56;35.63;;;21.05;;
52786;SDS011;38661;53.152;5.846;2023-03-29T12:40:25;27.08;;;19.02;;
52786;SDS011;38661;53.152;5.846;2023-03-29T12:43:01;27.65;;;18.98;;
52786;SDS011;38661;53.152;5.846;2023-03-29T12:45:33;27.75;;;17.77;;
52786;SDS011;38661;53.152;5.846;2023-03-29T12:48:12;26.23;;;18.73;;
52786;SDS011;38661;53.152;5.846;2023-03-29T12:50:44;23.42;;;18.60;;
52786;SDS011;38661;53.152;5.846;2023-03-29T12:53:49;29.45;;;18.45;;
52786;SDS011;38661;53.152;5.846;2023-03-29T12:56:20;23.75;;;17.20;;
52786;SDS011;38661;53.152;5.846;2023-03-29T13:01:59;28.67;;;20.27;;
52786;SDS011;38661;53.152;5.846;2023-03-29T13:05:03;31.17;;;20.17;;
52786;SDS011;38661;53.152;5.846;2023-03-29T13:09:53;32.17;;;21.38;;
52786;SDS011;38661;53.152;5.846;2023-03-29T13:15:20;29.20;;;20.90;;
52786;SDS011;38661;53.152;5.846;2023-03-29T13:34:31;29.88;;;22.15;;
52786;SDS011;38661;53.152;5.846;2023-03-29T13:39:48;36.75;;;22.30;;
52786;SDS011;38661;53.152;5.846;2023-03-29T13:44:44;35.85;;;22.25;;
52786;SDS011;38661;53.152;5.846;2023-03-29T13:50:02;27.20;;;20.67;;
52786;SDS011;38661;53.152;5.846;2023-03-29T13:52:35;31.02;;;21.80;;
52786;SDS011;38661;53.152;5.846;2023-03-29T13:57:51;30.85;;;21.48;;
52786;SDS011;38661;53.152;5.846;2023-03-29T14:00:21;28.75;;;22.27;;
52786;SDS011;38661;53.152;5.846;2023-03-29T14:02:53;28.08;;;22.20;;
52786;SDS011;38661;53.152;5.846;2023-03-29T14:05:22;28.17;;;21.92;;
52786;SDS011;38661;53.152;5.846;2023-03-29T14:07:54;27.02;;;21.90;;
52786;SDS011;38661;53.152;5.846;2023-03-29T14:10:25;30.48;;;23.77;;
52786;SDS011;38661;53.152;5.846;2023-03-29T14:12:58;27.15;;;22.35;;
52786;SDS011;38661;53.152;5.846;2023-03-29T14:15:26;28.85;;;21.60;;
52786;SDS011;38661;53.152;5.846;2023-03-29T14:18:14;28.40;;;22.85;;
52786;SDS011;38661;53.152;5.846;2023-03-29T14:20:46;29.70;;;23.05;;
52786;SDS011;38661;53.152;5.846;2023-03-29T14:23:15;28.33;;;21.88;;
52786;SDS011;38661;53.152;5.846;2023-03-29T14:25:45;27.58;;;22.58;;
52786;SDS011;38661;53.152;5.846;2023-03-29T14:28:16;29.85;;;24.38;;
52786;SDS011;38661;53.152;5.846;2023-03-29T14:30:44;26.37;;;21.10;;
52786;SDS011;38661;53.152;5.846;2023-03-29T14:33:12;28.90;;;22.70;;
52786;SDS011;38661;53.152;5.846;2023-03-29T14:35:38;30.08;;;21.17;;
52786;SDS011;38661;53.152;5.846;2023-03-29T14:38:04;24.40;;;20.20;;
52786;SDS011;38661;53.152;5.846;2023-03-29T14:40:30;26.55;;;21.10;;
52786;SDS011;38661;53.152;5.846;2023-03-29T14:42:57;25.40;;;20.40;;
52786;SDS011;38661;53.152;5.846;2023-03-29T14:45:26;26.30;;;21.48;;
52786;SDS011;38661;53.152;5.846;2023-03-29T14:47:52;27.67;;;20.25;;
52786;SDS011;38661;53.152;5.846;2023-03-29T14:50:20;28.02;;;21.45;;
52786;SDS011;38661;53.152;5.846;2023-03-29T14:52:50;25.42;;;21.50;;
52786;SDS011;38661;53.152;5.846;2023-03-29T14:55:16;23.23;;;16.35;;
52786;SDS011;38661;53.152;5.846;2023-03-29T14:57:47;21.95;;;17.75;;
52786;SDS011;38661;53.152;5.846;2023-03-29T15:00:20;22.20;;;17.10;;
52786;SDS011;38661;53.152;5.846;2023-03-29T15:02:54;20.83;;;16.00;;
52786;SDS011;38661;53.152;5.846;2023-03-29T15:07:50;18.35;;;14.57;;
52786;SDS011;38661;53.152;5.846;2023-03-29T15:10:19;18.65;;;12.90;;
52786;SDS011;38661;53.152;5.846;2023-03-29T15:12:46;22.65;;;16.40;;
52786;SDS011;38661;53.152;5.846;2023-03-29T15:15:13;21.80;;;15.32;;
52786;SDS011;38661;53.152;5.846;2023-03-29T15:17:40;22.75;;;17.20;;
52786;SDS011;38661;53.152;5.846;2023-03-29T15:20:18;20.50;;;15.00;;
52786;SDS011;38661;53.152;5.846;2023-03-29T15:22:54;18.27;;;14.93;;
52786;SDS011;38661;53.152;5.846;2023-03-29T15:25:32;18.90;;;13.10;;
52786;SDS011;38661;53.152;5.846;2023-03-29T15:28:00;16.77;;;13.25;;
52786;SDS011;38661;53.152;5.846;2023-03-29T15:30:37;15.63;;;12.02;;
52786;SDS011;38661;53.152;5.846;2023-03-29T15:33:14;14.30;;;11.57;;
52786;SDS011;38661;53.152;5.846;2023-03-29T15:35:44;18.15;;;13.55;;
52786;SDS011;38661;53.152;5.846;2023-03-29T15:38:14;16.67;;;11.98;;
52786;SDS011;38661;53.152;5.846;2023-03-29T15:40:40;17.13;;;13.07;;
52786;SDS011;38661;53.152;5.846;2023-03-29T15:43:05;16.95;;;12.70;;
52786;SDS011;38661;53.152;5.846;2023-03-29T15:45:31;18.30;;;12.75;;
52786;SDS011;38661;53.152;5.846;2023-03-29T15:47:57;18.10;;;14.00;;
52786;SDS011;38661;53.152;5.846;2023-03-29T15:50:26;16.73;;;12.90;;
52786;SDS011;38661;53.152;5.846;2023-03-29T15:52:52;17.48;;;15.57;;
52786;SDS011;38661;53.152;5.846;2023-03-29T15:55:23;20.08;;;15.98;;
52786;SDS011;38661;53.152;5.846;2023-03-29T15:57:53;18.13;;;16.23;;
52786;SDS011;38661;53.152;5.846;2023-03-29T16:00:22;21.75;;;17.00;;
52786;SDS011;38661;53.152;5.846;2023-03-29T16:02:48;22.58;;;17.27;;
52786;SDS011;38661;53.152;5.846;2023-03-29T16:05:15;21.50;;;18.30;;
52786;SDS011;38661;53.152;5.846;2023-03-29T16:07:41;22.08;;;17.38;;
52786;SDS011;38661;53.152;5.846;2023-03-29T16:10:07;20.15;;;16.58;;
52786;SDS011;38661;53.152;5.846;2023-03-29T16:12:34;19.00;;;15.65;;
52786;SDS011;38661;53.152;5.846;2023-03-29T16:15:07;23.92;;;17.73;;
52786;SDS011;38661;53.152;5.846;2023-03-29T16:17:39;20.85;;;16.75;;
52786;SDS011;38661;53.152;5.846;2023-03-29T16:20:05;23.63;;;17.23;;
52786;SDS011;38661;53.152;5.846;2023-03-29T16:22:32;24.27;;;18.77;;
52786;SDS011;38661;53.152;5.846;2023-03-29T16:24:58;24.83;;;19.30;;
52786;SDS011;38661;53.152;5.846;2023-03-29T16:27:24;25.05;;;20.55;;
52786;SDS011;38661;53.152;5.846;2023-03-29T16:29:50;26.95;;;20.05;;
52786;SDS011;38661;53.152;5.846;2023-03-29T16:32:15;27.08;;;18.20;;
52786;SDS011;38661;53.152;5.846;2023-03-29T16:34:41;23.67;;;19.45;;
52786;SDS011;38661;53.152;5.846;2023-03-29T16:37:07;21.95;;;18.13;;
52786;SDS011;38661;53.152;5.846;2023-03-29T16:39:33;25.30;;;18.85;;
52786;SDS011;38661;53.152;5.846;2023-03-29T16:41:58;52.63;;;37.65;;
52786;SDS011;38661;53.152;5.846;2023-03-29T16:44:24;38.13;;;31.75;;
52786;SDS011;38661;53.152;5.846;2023-03-29T16:46:51;29.33;;;25.90;;
52786;SDS011;38661;53.152;5.846;2023-03-29T16:49:22;35.55;;;26.42;;
52786;SDS011;38661;53.152;5.846;2023-03-29T16:51:48;43.55;;;35.03;;